Time;durP1;ratioP1;P1;durP2;ratioP2;P2;SDS_P1;SDS_P2;PMS_P1;PMS_P2;Temp;Humidity;BMP_temperature;BMP_pressure;BME280_temperature;BME280_humidity;BME280_pressure;Samples;Min_cycle;Max_cycle;Signal;HPM_P1;HPM_P2
2022/06/23 00:02:24;;;;;;;10.32;4.70;;;;;;;22.23;65.71;94597.03;4935624;29;20630;-80
2022/06/23 00:04:54;;;;;;;14.93;6.75;;;;;;;22.10;64.90;94582.50;4935175;29;20643;-80
2022/06/23 00:07:28;;;;;;;15.60;6.22;;;;;;;22.19;64.90;94594.16;4935200;29;20179;-80
2022/06/23 00:09:59;;;;;;;17.55;9.73;;;;;;;22.20;64.57;94595.75;4935280;29;20163;-80
2022/06/23 00:12:36;;;;;;;13.80;6.32;;;;;;;22.16;64.61;94575.97;4935194;29;20209;-80
2022/06/23 00:15:01;;;;;;;11.45;6.55;;;;;;;22.23;64.39;94604.31;4934973;29;20170;-80
2022/06/23 00:17:42;;;;;;;12.80;6.07;;;;;;;22.24;64.79;94600.53;4935048;29;20660;-80
2022/06/23 00:20:17;;;;;;;12.65;6.53;;;;;;;22.19;64.86;94596.84;4935169;29;20607;-80
2022/06/23 00:22:48;;;;;;;15.07;8.15;;;;;;;22.19;64.80;94606.78;4934835;29;20632;-80
2022/06/23 00:25:40;;;;;;;10.10;5.38;;;;;;;22.22;64.49;94600.03;4935022;29;20159;-80
2022/06/23 00:28:11;;;;;;;8.55;5.38;;;;;;;22.18;64.04;94594.44;4934959;29;20167;-79
2022/06/23 00:30:40;;;;;;;8.75;5.45;;;;;;;22.17;64.37;94579.44;4934826;29;20199;-80
2022/06/23 00:33:30;;;;;;;9.90;4.88;;;;;;;22.03;63.92;94557.94;4935289;29;20183;-80
2022/06/23 00:35:58;;;;;;;9.95;4.68;;;;;;;22.20;64.12;94568.94;4934770;29;20163;-80
2022/06/23 00:38:29;;;;;;;11.88;5.10;;;;;;;22.23;63.99;94550.69;4934583;29;20700;-80
2022/06/23 00:40:57;;;;;;;8.57;4.47;;;;;;;22.16;63.84;94538.41;4934991;29;20639;-80
2022/06/23 00:43:25;;;;;;;10.10;4.88;;;;;;;22.11;64.17;94521.63;4934552;29;20716;-80
2022/06/23 00:46:04;;;;;;;12.10;5.70;;;;;;;22.07;64.36;94540.16;4934552;29;20935;-80
2022/06/23 00:48:37;;;;;;;8.80;5.65;;;;;;;22.05;65.39;94555.75;4934715;29;20156;-79
2022/06/23 00:51:36;;;;;;;11.00;6.50;;;;;;;21.94;65.35;94548.09;4934723;29;20199;-79
2022/06/23 00:54:09;;;;;;;11.02;5.90;;;;;;;22.09;65.30;94564.00;4898100;29;20231;-80
2022/06/23 00:56:57;;;;;;;29.58;14.93;;;;;;;22.06;65.64;94572.63;4935069;29;20243;-80
2022/06/23 00:59:33;;;;;;;13.15;6.03;;;;;;;21.79;65.84;94528.44;4934871;29;20172;-80
2022/06/23 01:02:13;;;;;;;25.27;13.98;;;;;;;22.03;65.79;94567.84;4934781;29;20178;-80
2022/06/23 01:04:57;;;;;;;24.02;11.43;;;;;;;22.00;65.96;94563.84;4934534;29;20163;-80
2022/06/23 01:07:40;;;;;;;15.45;8.05;;;;;;;21.76;66.02;94528.25;4934829;29;20183;-80
2022/06/23 01:10:06;;;;;;;15.98;6.90;;;;;;;21.78;66.68;94555.56;4934782;29;20202;-80
2022/06/23 01:13:06;;;;;;;15.85;7.45;;;;;;;21.67;67.16;94548.72;4934715;29;20207;-80
2022/06/23 01:15:42;;;;;;;13.43;7.70;;;;;;;21.63;67.54;94553.06;4934842;29;20267;-80
2022/06/23 01:18:36;;;;;;;18.70;11.07;;;;;;;21.52;68.08;94541.69;4934523;29;20162;-81
2022/06/23 01:21:12;;;;;;;16.95;8.88;;;;;;;21.56;68.67;94549.94;4934696;29;20254;-79
2022/06/23 01:23:52;;;;;;;38.03;17.48;;;;;;;21.49;68.27;94539.56;4934915;29;20262;-80
2022/06/23 01:26:30;;;;;;;19.65;9.77;;;;;;;21.45;68.40;94538.53;4937441;29;20187;-80
2022/06/23 01:29:05;;;;;;;14.88;7.97;;;;;;;21.34;68.74;94540.56;4938238;29;20644;-80
2022/06/23 01:31:46;;;;;;;15.05;5.82;;;;;;;21.38;68.13;94541.56;4938389;29;20796;-78
2022/06/23 01:34:21;;;;;;;14.55;6.53;;;;;;;21.34;68.49;94542.44;4937958;29;20214;-80
2022/06/23 01:37:13;;;;;;;22.30;10.65;;;;;;;21.29;69.03;94545.16;4937765;29;20171;-79
2022/06/23 01:40:10;;;;;;;27.10;17.42;;;;;;;21.28;69.68;94532.84;4927920;29;20621;-80
2022/06/23 01:42:54;;;;;;;24.63;12.85;;;;;;;21.31;69.20;94533.09;4928363;29;20191;-80
2022/06/23 01:45:25;;;;;;;37.25;24.05;;;;;;;21.32;69.72;94528.53;4937892;29;20175;-80
2022/06/23 01:48:00;;;;;;;30.38;14.88;;;;;;;21.17;70.12;94510.75;4937471;29;20672;-80
2022/06/23 01:50:42;;;;;;;42.55;24.63;;;;;;;21.23;70.02;94523.00;4937291;29;20746;-80
2022/06/23 01:53:21;;;;;;;20.52;11.60;;;;;;;21.23;70.24;94511.50;4937291;29;20179;-80
2022/06/23 01:55:50;;;;;;;32.10;19.60;;;;;;;21.18;70.58;94511.56;4937592;29;20175;-79
2022/06/23 01:58:19;;;;;;;22.92;15.77;;;;;;;21.18;70.62;94504.31;4937772;29;20164;-80
2022/06/23 02:00:47;;;;;;;17.95;10.05;;;;;;;21.06;70.26;94499.34;4937450;29;20182;-80
2022/06/23 02:03:23;;;;;;;15.13;8.75;;;;;;;21.08;71.00;94499.06;4937185;29;20299;-80
2022/06/23 02:06:02;;;;;;;26.80;14.80;;;;;;;21.07;71.01;94497.44;4937292;29;20183;-79
2022/06/23 02:08:57;;;;;;;34.67;21.25;;;;;;;20.99;71.32;94501.56;4936952;29;20178;-80
2022/06/23 02:11:41;;;;;;;19.55;10.77;;;;;;;20.94;71.95;94503.47;4936910;29;20601;-79
2022/06/23 02:14:28;;;;;;;15.43;8.85;;;;;;;20.69;71.75;94485.81;4936990;29;20191;-80
2022/06/23 02:17:25;;;;;;;23.90;13.43;;;;;;;20.81;72.31;94512.19;4937031;29;20719;-80
2022/06/23 02:19:58;;;;;;;14.82;9.38;;;;;;;20.70;72.84;94496.22;4924033;29;20205;-79
2022/06/23 02:22:27;;;;;;;22.63;11.52;;;;;;;20.67;73.10;94496.78;4936853;29;20617;-80
2022/06/23 02:25:07;;;;;;;19.13;9.43;;;;;;;20.61;73.58;94505.94;4937650;29;20198;-79
2022/06/23 02:27:46;;;;;;;16.25;8.35;;;;;;;20.56;73.39;94502.53;4937055;29;20186;-79
2022/06/23 02:30:19;;;;;;;15.50;8.18;;;;;;;20.55;73.81;94501.72;4937040;29;20163;-80
2022/06/23 02:33:05;;;;;;;16.08;9.77;;;;;;;20.59;73.96;94505.41;4937307;29;20211;-79
2022/06/23 02:35:45;;;;;;;20.23;7.68;;;;;;;20.56;73.77;94507.88;4919819;29;20203;-79
2022/06/23 02:38:50;;;;;;;13.40;7.85;;;;;;;20.50;74.05;94509.78;4936431;29;20170;-79
2022/06/23 02:41:38;;;;;;;17.73;9.38;;;;;;;20.54;74.79;94510.03;4936805;29;20155;-79
2022/06/23 02:44:27;;;;;;;16.92;8.23;;;;;;;20.51;74.55;94510.56;4937217;29;20156;-79
2022/06/23 02:46:56;;;;;;;16.20;7.97;;;;;;;20.41;75.09;94511.47;4919511;29;20654;-79
2022/06/23 02:49:43;;;;;;;11.48;6.82;;;;;;;20.37;75.21;94515.78;4936220;29;20171;-79
2022/06/23 02:52:40;;;;;;;16.30;8.27;;;;;;;20.33;75.63;94523.53;4935879;29;20203;-79
2022/06/23 02:55:36;;;;;;;16.58;8.38;;;;;;;20.31;75.65;94523.03;4933605;29;20298;-79
2022/06/23 02:58:12;;;;;;;12.52;8.65;;;;;;;20.33;75.43;94514.72;4936206;29;20284;-79
2022/06/23 03:00:44;;;;;;;14.90;7.38;;;;;;;20.15;75.52;94496.69;4935036;29;20178;-80
2022/06/23 03:03:35;;;;;;;15.77;8.23;;;;;;;20.15;75.12;94505.47;4933429;29;20183;-81
2022/06/23 03:06:23;;;;;;;14.93;8.18;;;;;;;20.27;74.94;94531.88;4934853;29;20563;-81
2022/06/23 03:08:54;;;;;;;16.67;8.80;;;;;;;20.21;75.66;94533.78;4935914;29;20676;-81
2022/06/23 03:11:51;;;;;;;14.48;8.00;;;;;;;20.17;76.02;94531.94;4934037;29;20226;-81
2022/06/23 03:14:17;;;;;;;14.70;7.93;;;;;;;20.21;75.64;94539.13;4934653;29;20182;-81
2022/06/23 03:16:49;;;;;;;15.57;8.30;;;;;;;20.04;75.58;94516.53;4935449;29;20683;-81
2022/06/23 03:19:32;;;;;;;19.55;8.63;;;;;;;20.24;75.50;94543.91;4935578;29;20676;-81
2022/06/23 03:22:03;;;;;;;22.85;8.38;;;;;;;20.26;75.33;94530.28;4935762;29;20175;-81
2022/06/23 03:24:42;;;;;;;15.05;8.80;;;;;;;20.23;75.32;94517.47;4933675;29;20552;-81
2022/06/23 03:27:19;;;;;;;19.33;9.75;;;;;;;20.28;74.67;94517.44;4935712;29;20182;-81
2022/06/23 03:30:01;;;;;;;15.27;8.55;;;;;;;20.32;74.76;94510.47;4934486;29;20182;-81
2022/06/23 03:32:35;;;;;;;22.42;8.73;;;;;;;20.23;75.35;94504.91;4918402;29;20924;-81
2022/06/23 03:35:22;;;;;;;14.70;7.93;;;;;;;20.15;75.92;94510.06;4935171;29;20245;-81
2022/06/23 03:37:58;;;;;;;17.85;8.40;;;;;;;20.06;76.15;94477.78;4934100;29;20171;-81
2022/06/23 03:43:25;;;;;;;15.38;8.07;;;;;;;20.28;76.03;94506.72;4906827;29;20192;-78
2022/06/23 03:45:57;;;;;;;17.45;7.82;;;;;;;20.35;76.42;94507.25;4934731;29;20255;-78
2022/06/23 03:48:36;;;;;;;17.55;8.20;;;;;;;20.48;76.49;94500.47;4934423;29;20170;-78
2022/06/23 03:51:10;;;;;;;18.00;8.02;;;;;;;20.59;75.66;94507.28;4933887;29;20628;-79
2022/06/23 03:53:49;;;;;;;14.85;7.55;;;;;;;20.61;74.97;94516.63;4931433;29;20237;-79
2022/06/23 03:56:21;;;;;;;12.20;7.65;;;;;;;20.73;74.96;94526.97;4927488;29;20183;-78
2022/06/23 03:58:56;;;;;;;11.63;6.72;;;;;;;20.89;74.97;94520.41;4932140;29;20193;-79
2022/06/23 04:01:29;;;;;;;11.40;7.47;;;;;;;20.86;74.30;94486.16;4933024;29;20227;-79
2022/06/23 04:04:14;;;;;;;15.40;9.35;;;;;;;21.15;74.14;94515.56;4931604;29;20193;-78
2022/06/23 04:06:42;;;;;;;43.35;21.05;;;;;;;21.25;73.34;94514.69;4928037;29;20188;-79
2022/06/23 04:09:15;;;;;;;33.65;17.42;;;;;;;21.45;72.28;94533.19;4934775;29;20179;-79
2022/06/23 04:12:06;;;;;;;23.52;10.38;;;;;;;21.59;71.33;94526.06;4934861;29;20291;-79
2022/06/23 04:14:54;;;;;;;22.08;9.05;;;;;;;21.78;70.52;94528.75;4928355;29;20195;-79
2022/06/23 04:17:49;;;;;;;20.10;9.10;;;;;;;21.88;69.75;94528.59;4933539;29;20230;-79
2022/06/23 04:20:19;;;;;;;25.60;12.20;;;;;;;22.00;69.77;94536.25;4911120;29;20585;-78
2022/06/23 04:22:57;;;;;;;16.20;8.52;;;;;;;22.06;69.68;94537.75;4935508;29;20648;-79
2022/06/23 04:25:34;;;;;;;14.27;8.18;;;;;;;22.20;69.15;94547.50;4926828;29;20628;-79
2022/06/23 04:28:01;;;;;;;16.45;7.80;;;;;;;22.27;68.77;94528.34;4934391;29;20686;-79
2022/06/23 04:30:27;;;;;;;20.67;8.15;;;;;;;22.39;68.24;94522.53;4934469;29;20175;-79
2022/06/23 04:32:55;;;;;;;14.73;7.43;;;;;;;22.27;68.16;94524.88;4934537;29;20226;-76
2022/06/23 04:35:27;;;;;;;14.57;7.18;;;;;;;22.33;67.56;94505.72;4934929;29;20175;-80
2022/06/23 04:38:10;;;;;;;12.65;7.60;;;;;;;22.66;67.76;94521.84;4934746;29;20624;-80
2022/06/23 04:40:41;;;;;;;11.85;6.88;;;;;;;22.84;66.25;94532.53;4934960;29;20185;-80
2022/06/23 04:43:21;;;;;;;15.95;6.60;;;;;;;23.06;65.17;94531.06;4933357;29;20198;-80
2022/06/23 04:45:55;;;;;;;13.30;7.10;;;;;;;23.13;64.24;94516.16;4934313;29;20175;-79
2022/06/23 04:48:27;;;;;;;18.80;7.78;;;;;;;23.36;63.73;94524.31;4919898;29;20171;-79
2022/06/23 04:51:10;;;;;;;13.43;7.07;;;;;;;23.42;63.63;94521.25;4915428;29;20723;-79
2022/06/23 04:53:54;;;;;;;10.35;6.78;;;;;;;23.64;63.35;94520.56;4915595;29;20227;-79
2022/06/23 04:56:40;;;;;;;22.15;8.15;;;;;;;23.86;62.62;94527.91;4915658;29;20180;-79
2022/06/23 04:59:28;;;;;;;17.58;7.38;;;;;;;24.01;63.20;94522.97;4915335;29;20175;-79
2022/06/23 05:01:56;;;;;;;23.38;8.68;;;;;;;24.09;62.95;94494.56;4919112;29;20673;-79
2022/06/23 05:04:43;;;;;;;20.17;8.27;;;;;;;24.53;62.00;94504.59;4901589;29;20182;-79
2022/06/23 05:07:21;;;;;;;17.98;10.98;;;;;;;24.83;60.07;94505.69;4936537;29;20403;-79
2022/06/23 05:09:50;;;;;;;15.75;6.57;;;;;;;25.15;59.94;94510.81;4937649;29;20189;-79
2022/06/23 05:12:28;;;;;;;22.52;6.55;;;;;;;25.46;59.47;94505.38;4937599;29;20231;-79
2022/06/23 05:15:10;;;;;;;14.68;6.53;;;;;;;25.83;57.31;94514.06;4937726;29;20239;-79
2022/06/23 05:17:45;;;;;;;17.23;7.32;;;;;;;26.18;57.03;94493.31;4937481;29;20239;-79
2022/06/23 05:20:19;;;;;;;11.32;8.25;;;;;;;26.84;55.69;94526.31;4940367;29;20634;-79
2022/06/23 05:22:47;;;;;;;16.50;6.90;;;;;;;27.03;53.09;94530.28;4957558;29;20224;-79
2022/06/23 05:25:15;;;;;;;14.73;6.57;;;;;;;26.80;53.39;94522.69;4957309;28;20201;-79
2022/06/23 05:27:46;;;;;;;9.70;5.93;;;;;;;26.22;53.25;94478.06;4939789;29;20186;-80
2022/06/23 05:30:14;;;;;;;10.95;6.32;;;;;;;25.87;55.70;94482.63;4957211;29;20644;-80
2022/06/23 05:32:47;;;;;;;11.18;7.50;;;;;;;25.66;57.19;94501.34;4956625;29;20210;-77
2022/06/23 05:35:19;;;;;;;16.50;6.28;;;;;;;25.55;59.18;94535.06;4957074;29;20707;-77
2022/06/23 05:37:54;;;;;;;15.90;7.07;;;;;;;25.31;56.47;94532.75;4957344;29;20162;-77
2022/06/23 05:40:22;;;;;;;10.95;6.35;;;;;;;25.17;58.97;94516.69;4956824;29;20177;-77
2022/06/23 05:42:50;;;;;;;14.05;7.03;;;;;;;24.92;59.86;94495.00;4949656;29;20551;-77
2022/06/23 05:45:27;;;;;;;10.73;6.78;;;;;;;24.28;60.49;94500.59;4937806;29;20183;-77
2022/06/23 05:47:54;;;;;;;19.52;7.93;;;;;;;23.97;61.15;94531.94;4937680;29;20179;-78
2022/06/23 05:50:29;;;;;;;13.25;8.07;;;;;;;23.85;63.34;94639.25;4937688;29;20234;-78
2022/06/23 05:53:01;;;;;;;20.63;7.50;;;;;;;23.76;64.47;94862.31;4928648;29;20565;-78
2022/06/23 05:55:44;;;;;;;38.53;7.38;;;;;;;23.04;66.30;94936.09;4937631;29;20571;-77
2022/06/23 05:58:29;;;;;;;30.33;8.93;;;;;;;22.15;73.80;94853.25;4937257;29;20206;-77
2022/06/23 06:00:59;;;;;;;22.90;6.93;;;;;;;21.49;79.42;94676.19;4937119;29;20275;-78
2022/06/23 06:03:38;;;;;;;14.25;4.45;;;;;;;20.30;81.37;94670.34;4939258;29;20182;-78
2022/06/23 06:06:04;;;;;;;16.65;5.15;;;;;;;19.73;84.38;94725.06;4936357;29;20250;-78
2022/06/23 06:09:35;;;;;;;9.90;4.63;;;;;;;19.08;88.03;94740.06;4939318;29;20198;-78
2022/06/23 06:11:25;;;;;;;14.52;4.95;;;;;;;18.57;91.74;94752.53;4938521;29;20213;-78
2022/06/23 06:13:51;;;;;;;11.45;5.55;;;;;;;18.17;94.07;94718.50;4944934;29;20187;-78
2022/06/23 06:16:16;;;;;;;12.18;4.93;;;;;;;18.10;94.82;94766.72;4945579;29;20660;-77
2022/06/23 06:18:44;;;;;;;13.20;6.00;;;;;;;17.65;97.34;94742.50;4943357;29;20175;-76
2022/06/23 06:21:12;;;;;;;14.10;6.10;;;;;;;17.58;98.88;94729.38;4940581;29;20232;-76
2022/06/23 06:23:53;;;;;;;15.27;5.38;;;;;;;17.60;99.57;94716.63;4935554;29;20230;-76
2022/06/23 06:26:23;;;;;;;17.45;6.55;;;;;;;17.40;100.00;94643.84;4938766;29;20174;-77
2022/06/23 06:28:50;;;;;;;10.25;6.32;;;;;;;17.82;100.00;94670.41;4942392;29;20182;-76
2022/06/23 06:31:38;;;;;;;10.63;6.85;;;;;;;18.07;100.00;94657.22;4939030;29;20267;-76
2022/06/23 06:34:19;;;;;;;14.30;5.53;;;;;;;18.17;100.00;94657.22;4937092;29;20193;-76
2022/06/23 06:36:49;;;;;;;9.48;5.60;;;;;;;18.43;100.00;94663.41;4933794;29;20188;-76
2022/06/23 06:39:35;;;;;;;14.32;6.60;;;;;;;18.67;100.00;94669.91;4935406;29;20951;-76
2022/06/23 06:42:04;;;;;;;16.15;7.00;;;;;;;18.81;99.33;94662.16;4934522;29;20172;-76
2022/06/23 06:44:31;;;;;;;14.80;7.20;;;;;;;19.00;99.34;94659.75;4940150;29;20171;-76
2022/06/23 06:46:57;;;;;;;13.43;6.10;;;;;;;19.14;100.00;94655.47;4938219;29;20230;-76
2022/06/23 06:49:25;;;;;;;10.38;5.55;;;;;;;19.28;99.80;94647.72;4935932;29;20171;-76
2022/06/23 06:51:53;;;;;;;14.60;7.35;;;;;;;19.35;98.18;94642.91;4939896;29;20654;-76
2022/06/23 06:54:40;;;;;;;9.80;5.60;;;;;;;19.36;94.38;94645.31;4931475;29;20301;-76
2022/06/23 06:57:12;;;;;;;5.97;3.63;;;;;;;19.40;92.83;94646.34;4935557;29;20201;-76
2022/06/23 06:59:57;;;;;;;6.43;3.33;;;;;;;19.41;90.38;94639.13;4935937;29;20186;-76
2022/06/23 07:02:30;;;;;;;11.63;7.53;;;;;;;19.47;90.89;94649.56;4931496;29;20231;-76
2022/06/23 07:05:20;;;;;;;15.93;7.40;;;;;;;19.56;93.45;94647.13;4935795;29;20193;-76
2022/06/23 07:07:54;;;;;;;20.63;9.25;;;;;;;19.72;95.80;94648.69;4935566;29;20194;-76
2022/06/23 07:10:33;;;;;;;17.25;7.28;;;;;;;19.87;96.64;94651.31;4935408;29;20189;-76
2022/06/23 07:13:05;;;;;;;12.43;6.63;;;;;;;19.99;97.15;94653.66;4935291;29;20691;-76
2022/06/23 07:15:49;;;;;;;13.52;7.20;;;;;;;20.04;95.46;94648.28;4935166;29;20195;-76
2022/06/23 07:18:32;;;;;;;12.32;7.18;;;;;;;20.16;93.81;94638.06;4934247;29;20277;-76
2022/06/23 07:21:07;;;;;;;15.55;7.07;;;;;;;20.43;96.15;94659.06;4935311;29;20183;-76
2022/06/23 07:23:59;;;;;;;16.80;10.07;;;;;;;20.60;95.09;94672.06;4934601;29;20197;-76
2022/06/23 07:26:37;;;;;;;11.93;6.68;;;;;;;20.52;92.90;94665.44;4935412;29;20189;-76
2022/06/23 07:30:04;;;;;;;11.85;6.00;;;;;;;20.71;92.30;94681.63;4935174;29;20218;-76
2022/06/23 07:32:53;;;;;;;9.20;6.75;;;;;;;20.86;93.72;94689.53;4854816;29;20321;-75
2022/06/23 07:35:34;;;;;;;12.93;6.43;;;;;;;21.23;95.83;94691.69;4857487;29;20372;-76
2022/06/23 07:38:16;;;;;;;12.00;6.93;;;;;;;21.59;93.83;94702.09;4910503;29;20233;-75
2022/06/23 07:40:53;;;;;;;9.60;6.55;;;;;;;21.86;89.83;94702.34;4934064;29;20610;-75
2022/06/23 07:43:30;;;;;;;12.77;8.10;;;;;;;22.02;88.45;94711.03;4940731;29;20678;-75
2022/06/23 07:45:58;;;;;;;11.82;6.53;;;;;;;22.06;84.85;94706.69;4934322;29;20183;-75
2022/06/23 07:48:27;;;;;;;10.13;4.75;;;;;;;22.17;82.91;94711.66;4934265;29;20306;-75
2022/06/23 07:50:54;;;;;;;10.30;4.93;;;;;;;22.25;82.94;94704.03;4934117;29;20246;-75
2022/06/23 07:53:24;;;;;;;9.20;5.32;;;;;;;22.54;81.82;94736.94;4933732;29;20274;-75
2022/06/23 07:55:49;;;;;;;6.97;3.95;;;;;;;22.44;77.47;94745.94;4927716;29;21017;-74
2022/06/23 07:58:21;;;;;;;7.63;3.28;;;;;;;22.28;75.76;94741.03;4932794;29;20186;-75
2022/06/23 08:00:50;;;;;;;8.23;4.38;;;;;;;22.24;79.48;94723.91;4927219;29;20182;-75
2022/06/23 08:03:29;;;;;;;4.95;3.95;;;;;;;22.29;76.89;94715.81;4933481;29;20170;-74
2022/06/23 08:06:01;;;;;;;7.68;4.18;;;;;;;22.68;81.96;94723.59;4934058;29;20183;-75
2022/06/23 08:08:30;;;;;;;6.30;3.88;;;;;;;23.12;82.70;94742.06;4933798;29;20179;-75
2022/06/23 08:13:50;;;;;;;6.03;3.33;;;;;;;23.27;73.52;94714.94;4928025;29;20198;-75
2022/06/23 08:19:10;;;;;;;7.50;4.95;;;;;;;23.70;77.09;94715.59;4933316;29;20205;-75
2022/06/23 08:21:46;;;;;;;8.50;4.28;;;;;;;23.89;75.35;94718.22;4933266;29;20170;-75
2022/06/23 08:24:23;;;;;;;6.63;3.20;;;;;;;23.98;72.72;94722.59;4933060;29;20182;-75
2022/06/23 08:27:03;;;;;;;18.75;9.43;;;;;;;23.82;68.92;94715.91;4933795;29;20189;-75
2022/06/23 08:29:41;;;;;;;10.77;7.63;;;;;;;23.92;73.75;94693.44;4933387;29;20189;-75
2022/06/23 08:32:08;;;;;;;16.45;10.70;;;;;;;24.01;73.37;94699.72;4933305;29;20293;-75
2022/06/23 08:34:34;;;;;;;9.32;4.50;;;;;;;24.21;73.21;94712.00;4917074;29;20567;-75
2022/06/23 08:37:14;;;;;;;7.78;3.45;;;;;;;24.43;69.82;94702.09;4937367;29;20205;-76
2022/06/23 08:39:49;;;;;;;7.32;3.30;;;;;;;24.49;66.10;94696.59;4937569;29;20191;-76
2022/06/23 08:42:34;;;;;;;6.90;3.78;;;;;;;24.53;65.19;94701.09;4937660;29;20186;-76
2022/06/23 08:45:10;;;;;;;8.82;3.63;;;;;;;24.43;64.53;94701.31;4937997;29;20221;-79
2022/06/23 08:47:55;;;;;;;7.43;4.97;;;;;;;24.66;65.32;94697.56;4937815;29;20250;-76
2022/06/23 08:50:44;;;;;;;8.45;4.00;;;;;;;24.78;69.58;94692.47;4938329;29;20183;-77
2022/06/23 08:53:23;;;;;;;24.92;13.43;;;;;;;25.14;70.27;94689.78;4936340;29;20222;-76
2022/06/23 08:56:22;;;;;;;10.30;4.82;;;;;;;24.92;63.28;94687.03;4939843;29;20225;-77
2022/06/23 08:58:53;;;;;;;9.75;3.92;;;;;;;24.62;65.11;94682.31;4953989;29;20178;-77
2022/06/23 09:01:36;;;;;;;6.05;4.03;;;;;;;24.20;67.85;94668.13;4957680;29;20666;-77
2022/06/23 09:04:27;;;;;;;9.25;4.45;;;;;;;24.51;66.22;94689.03;4943353;29;20680;-76
2022/06/23 09:07:22;;;;;;;7.93;4.93;;;;;;;24.42;68.15;94673.59;4925301;29;20203;-76
2022/06/23 09:09:55;;;;;;;8.00;4.35;;;;;;;24.59;67.88;94685.63;4940794;29;20674;-76
2022/06/23 09:12:32;;;;;;;7.35;4.35;;;;;;;24.69;66.52;94677.31;4943481;29;20191;-76
2022/06/23 09:15:19;;;;;;;12.38;4.85;;;;;;;25.06;67.97;94673.53;4937356;29;20270;-76
2022/06/23 09:17:53;;;;;;;7.75;4.65;;;;;;;25.33;65.08;94661.84;4936647;29;20657;-76
2022/06/23 09:20:27;;;;;;;10.00;4.43;;;;;;;25.07;63.08;94670.53;4936533;29;20206;-76
2022/06/23 09:23:07;;;;;;;8.60;4.63;;;;;;;24.67;65.99;94649.91;4936927;29;20236;-76
2022/06/23 09:25:56;;;;;;;9.43;5.45;;;;;;;24.91;69.91;94663.09;4933118;29;20197;-76
2022/06/23 09:28:33;;;;;;;10.63;5.10;;;;;;;25.41;74.19;94653.00;4920618;29;20676;-77
2022/06/23 09:31:12;;;;;;;14.68;5.68;;;;;;;25.46;66.94;94652.84;4929194;29;20218;-76
2022/06/23 09:33:40;;;;;;;8.20;5.32;;;;;;;25.56;70.67;94647.22;4933697;29;20171;-76
2022/06/23 09:36:27;;;;;;;8.82;4.95;;;;;;;25.62;63.97;94651.38;4936671;29;20175;-77
2022/06/23 09:39:07;;;;;;;8.60;5.20;;;;;;;25.73;65.99;94646.50;4937421;29;20179;-75
2022/06/23 09:41:45;;;;;;;12.70;5.25;;;;;;;25.92;63.96;94647.88;4940680;29;20640;-76
2022/06/23 09:44:34;;;;;;;8.70;4.72;;;;;;;25.93;64.17;94646.78;4936259;29;20198;-75
2022/06/23 09:47:32;;;;;;;5.75;4.13;;;;;;;25.99;67.61;94635.81;4926745;29;20194;-75
2022/06/23 09:50:21;;;;;;;10.20;4.70;;;;;;;26.34;65.59;94637.53;4906623;29;20230;-74
2022/06/23 09:53:01;;;;;;;14.25;5.15;;;;;;;26.61;66.28;94647.25;4935914;29;20624;-77
2022/06/23 09:55:26;;;;;;;10.05;5.15;;;;;;;26.63;65.40;94647.75;4936463;29;20628;-77
2022/06/23 09:57:52;;;;;;;12.48;5.70;;;;;;;26.72;68.83;94648.53;4936757;29;20186;-77
2022/06/23 10:00:20;;;;;;;12.07;5.60;;;;;;;26.73;68.34;94631.19;4936952;29;20179;-79
2022/06/23 10:03:03;;;;;;;12.13;5.43;;;;;;;26.96;67.86;94645.38;4936258;29;20567;-81
2022/06/23 10:05:39;;;;;;;10.45;4.40;;;;;;;26.91;64.70;94627.41;4929773;29;20266;-80
2022/06/23 10:08:13;;;;;;;11.93;5.15;;;;;;;27.07;58.76;94656.69;4936911;29;20171;-80
2022/06/23 10:11:07;;;;;;;14.77;4.93;;;;;;;26.42;60.76;94555.75;4936428;29;20186;-80
2022/06/23 10:13:53;;;;;;;12.77;5.13;;;;;;;26.83;62.59;94644.38;4936740;29;20191;-80
2022/06/23 10:16:31;;;;;;;8.73;4.93;;;;;;;26.63;61.38;94645.03;4936622;29;20164;-80
2022/06/23 10:19:23;;;;;;;10.45;4.80;;;;;;;26.35;64.42;94644.53;4936368;29;20235;-80
2022/06/23 10:22:05;;;;;;;10.57;5.43;;;;;;;25.24;65.93;94473.13;4934764;29;20239;-80
2022/06/23 10:24:39;;;;;;;14.05;5.47;;;;;;;26.24;65.77;94621.59;4934576;29;20266;-80
2022/06/23 10:27:24;;;;;;;11.80;5.20;;;;;;;26.37;61.64;94620.72;4934271;29;20234;-79
2022/06/23 10:30:27;;;;;;;12.70;5.90;;;;;;;26.41;64.72;94618.94;4933701;29;20214;-80
2022/06/23 10:33:20;;;;;;;10.05;4.72;;;;;;;26.54;62.77;94609.13;4932788;29;20298;-80
2022/06/23 10:36:01;;;;;;;18.83;5.40;;;;;;;26.69;67.58;94603.25;4933925;29;20226;-80
2022/06/23 10:38:29;;;;;;;13.75;5.25;;;;;;;26.74;62.31;94600.38;4933880;29;20175;-80
2022/06/23 10:41:25;;;;;;;9.55;5.13;;;;;;;26.73;61.81;94606.09;4940341;29;20682;-80
2022/06/23 10:44:39;;;;;;;11.57;5.25;;;;;;;26.50;60.94;94594.66;4933694;29;20186;-80
2022/06/23 10:47:14;;;;;;;12.90;5.18;;;;;;;26.47;64.05;94590.69;4856979;29;20193;-80
2022/06/23 10:50:07;;;;;;;17.25;5.68;;;;;;;26.44;66.17;94587.84;4857141;29;20782;-80
2022/06/23 10:52:35;;;;;;;14.98;5.57;;;;;;;26.51;67.13;94597.03;4902573;29;20219;-80
2022/06/23 10:55:09;;;;;;;11.38;5.97;;;;;;;26.57;66.81;94587.66;4915303;29;20599;-80
2022/06/23 10:57:51;;;;;;;13.93;4.93;;;;;;;26.62;64.61;94584.03;4914148;29;20670;-80
2022/06/23 11:00:44;;;;;;;5.63;4.60;;;;;;;26.71;65.98;94586.72;4898136;29;20703;-80
2022/06/23 11:03:21;;;;;;;8.20;5.03;;;;;;;26.81;62.71;94591.81;4915054;29;20183;-80
2022/06/23 11:06:20;;;;;;;10.80;5.13;;;;;;;26.84;65.42;94588.44;4914930;29;20246;-80
2022/06/23 11:09:05;;;;;;;11.30;5.53;;;;;;;26.80;64.10;94584.81;4915006;29;20625;-80
2022/06/23 11:11:52;;;;;;;13.57;4.95;;;;;;;26.80;65.03;94588.31;4914727;29;20215;-80
2022/06/23 11:14:51;;;;;;;10.38;5.07;;;;;;;26.94;66.26;94580.84;4915032;29;20590;-80
2022/06/23 11:17:38;;;;;;;11.13;4.85;;;;;;;27.13;65.63;94582.41;4914888;29;20659;-81
2022/06/23 11:20:32;;;;;;;10.35;4.80;;;;;;;27.27;62.69;94580.28;4915007;29;20681;-80
2022/06/23 11:23:22;;;;;;;13.68;5.20;;;;;;;27.30;61.34;94588.56;4914645;29;20564;-80
2022/06/23 11:26:02;;;;;;;8.52;4.63;;;;;;;27.33;64.68;94579.78;4897553;29;20191;-81
2022/06/23 11:28:34;;;;;;;13.23;5.30;;;;;;;27.36;66.07;94581.84;4914825;29;20187;-81
2022/06/23 11:31:12;;;;;;;9.82;4.80;;;;;;;27.41;65.01;94595.22;4914471;29;20204;-80
2022/06/23 11:34:13;;;;;;;12.30;4.88;;;;;;;27.43;62.33;94603.78;4914497;29;20680;-80
2022/06/23 11:37:05;;;;;;;8.80;4.85;;;;;;;27.37;63.27;94594.25;4914598;29;20660;-80
2022/06/23 11:39:52;;;;;;;14.30;5.63;;;;;;;27.37;63.36;94613.19;4914497;29;20721;-80
2022/06/23 11:42:32;;;;;;;9.65;4.30;;;;;;;27.32;63.96;94605.28;4914316;29;20279;-80
2022/06/23 11:45:16;;;;;;;8.30;4.43;;;;;;;27.38;65.28;94603.16;4914496;29;20245;-80
2022/06/23 11:48:18;;;;;;;9.85;4.85;;;;;;;27.56;66.16;94609.34;4914377;29;20183;-80
2022/06/23 11:50:57;;;;;;;8.95;4.90;;;;;;;27.71;65.23;94606.91;4914140;29;20183;-80
2022/06/23 11:53:40;;;;;;;9.45;4.07;;;;;;;27.86;63.37;94610.16;4916122;29;20595;-80
2022/06/23 11:56:42;;;;;;;6.45;4.10;;;;;;;28.02;63.25;94614.69;4933359;29;20183;-81
2022/06/23 11:59:38;;;;;;;9.40;3.58;;;;;;;28.20;63.19;94609.22;4916195;29;20202;-81
2022/06/23 12:02:03;;;;;;;10.85;4.32;;;;;;;28.35;63.94;94612.19;4926738;29;20263;-80
2022/06/23 12:04:41;;;;;;;11.48;4.80;;;;;;;28.44;63.65;94609.41;4933012;29;20599;-81
2022/06/23 12:07:12;;;;;;;13.30;4.40;;;;;;;28.27;59.67;94609.53;4932983;29;20575;-81
2022/06/23 12:10:13;;;;;;;6.03;3.95;;;;;;;28.15;61.26;94592.03;4933894;29;20179;-80
2022/06/23 12:12:42;;;;;;;15.20;5.53;;;;;;;28.08;62.16;94575.53;4934676;29;20206;-79
2022/06/23 12:15:10;;;;;;;10.90;4.47;;;;;;;28.24;61.37;94578.47;4934704;29;20175;-79
2022/06/23 12:17:49;;;;;;;8.43;3.38;;;;;;;28.33;59.34;94579.19;4934944;29;20223;-79
2022/06/23 12:20:44;;;;;;;10.50;4.28;;;;;;;28.40;61.64;94584.09;4934774;29;20175;-79
2022/06/23 12:23:19;;;;;;;12.57;3.95;;;;;;;28.34;60.03;94577.28;4934945;29;20182;-79
2022/06/23 12:26:03;;;;;;;8.27;3.53;;;;;;;28.41;60.58;94582.97;4934326;29;20301;-79
2022/06/23 12:28:57;;;;;;;15.30;5.22;;;;;;;28.40;59.57;94584.09;4934776;29;20534;-78
2022/06/23 12:31:32;;;;;;;10.38;4.18;;;;;;;28.31;58.94;94583.34;4928429;29;20191;-80